createdAt,value
2022-12-09T00:00:03.861Z,38.13
2022-12-09T00:02:31.492Z,37.87
2022-12-09T00:04:58.881Z,36.80
2022-12-09T00:07:26.056Z,37.23
2022-12-09T00:09:53.168Z,37.00
2022-12-09T00:12:20.318Z,34.37
2022-12-09T00:14:47.523Z,35.37
2022-12-09T00:17:14.892Z,35.67
2022-12-09T00:19:42.339Z,33.37
2022-12-09T00:22:09.641Z,30.30
2022-12-09T00:24:36.873Z,29.97
2022-12-09T00:27:04.280Z,25.93
2022-12-09T00:29:31.573Z,22.77
2022-12-09T00:31:58.705Z,22.37
2022-12-09T00:34:26.029Z,20.00
2022-12-09T00:36:53.366Z,21.17
2022-12-09T00:39:20.504Z,20.10
2022-12-09T00:41:49.236Z,13.43
2022-12-09T00:44:16.365Z,12.43
2022-12-09T00:46:43.575Z,12.20
2022-12-09T00:49:11.095Z,12.00
2022-12-09T00:51:38.187Z,19.63
2022-12-09T00:54:05.341Z,23.30
2022-12-09T00:56:32.778Z,27.00
2022-12-09T00:59:00.085Z,24.37
2022-12-09T01:01:27.622Z,17.70
2022-12-09T01:03:55.365Z,19.47
2022-12-09T01:06:23.779Z,18.27
2022-12-09T01:08:51.033Z,15.93
2022-12-09T01:11:20.432Z,15.87
2022-12-09T01:13:47.834Z,15.17
2022-12-09T01:16:15.896Z,15.97
2022-12-09T01:18:43.045Z,15.60
2022-12-09T01:21:10.149Z,14.50
2022-12-09T01:23:37.665Z,18.37
2022-12-09T01:26:05.596Z,14.70
2022-12-09T01:28:33.047Z,15.10
2022-12-09T01:31:10.814Z,15.77
2022-12-09T01:33:38.291Z,15.63
2022-12-09T01:36:06.776Z,15.53
2022-12-09T01:38:34.233Z,13.07
2022-12-09T01:41:01.562Z,13.53
2022-12-09T01:43:28.769Z,15.10
2022-12-09T01:45:56.035Z,16.50
2022-12-09T01:48:24.594Z,15.87
2022-12-09T01:50:51.748Z,14.70
2022-12-09T01:53:19.111Z,15.23
2022-12-09T01:55:46.402Z,15.40
2022-12-09T01:58:13.618Z,15.23
2022-12-09T02:00:40.753Z,15.67
2022-12-09T02:03:08.551Z,14.70
2022-12-09T02:05:35.864Z,15.23
2022-12-09T02:08:03.390Z,16.17
2022-12-09T02:10:30.552Z,17.37
2022-12-09T02:13:06.913Z,24.77
2022-12-09T02:15:44.661Z,23.87
2022-12-09T02:18:15.087Z,19.67
2022-12-09T02:20:42.985Z,18.80
2022-12-09T02:23:20.561Z,18.60
2022-12-09T02:25:48.744Z,19.07
2022-12-09T02:28:25.356Z,19.37
2022-12-09T02:31:11.235Z,20.63
2022-12-09T02:33:56.956Z,21.90
2022-12-09T02:36:24.584Z,21.83
2022-12-09T02:38:51.692Z,20.83
2022-12-09T02:41:26.874Z,19.03
2022-12-09T02:43:55.057Z,20.27
2022-12-09T02:46:22.572Z,21.17
2022-12-09T02:48:52.223Z,21.10
2022-12-09T02:51:20.098Z,18.70
2022-12-09T02:53:47.783Z,20.70
2022-12-09T02:56:15.647Z,24.50
2022-12-09T02:58:42.809Z,24.50
2022-12-09T03:01:29.471Z,26.07
2022-12-09T03:03:56.720Z,28.77
2022-12-09T03:06:25.567Z,27.10
2022-12-09T03:08:53.233Z,27.77
2022-12-09T03:11:20.864Z,25.20
2022-12-09T03:14:03.420Z,26.10
2022-12-09T03:16:46.046Z,26.00
2022-12-09T03:19:21.459Z,24.03
2022-12-09T03:21:48.907Z,24.80
2022-12-09T03:24:17.707Z,24.70
2022-12-09T03:26:45.091Z,23.80
2022-12-09T03:29:14.283Z,24.43
2022-12-09T03:31:41.429Z,25.37
2022-12-09T03:34:09.136Z,26.30
2022-12-09T03:36:39.755Z,23.40
2022-12-09T03:39:07.616Z,21.57
2022-12-09T03:41:34.924Z,21.77
2022-12-09T03:44:04.783Z,22.40
2022-12-09T03:46:32.243Z,22.80
2022-12-09T03:48:59.767Z,24.03
2022-12-09T03:51:41.112Z,23.17
2022-12-09T03:54:24.439Z,23.90
2022-12-09T03:56:53.416Z,22.43
2022-12-09T03:59:20.577Z,23.73
2022-12-09T04:01:47.816Z,26.53
2022-12-09T04:04:15.180Z,24.00
2022-12-09T04:06:42.384Z,23.67
2022-12-09T04:09:11.345Z,24.90
2022-12-09T04:11:38.540Z,25.27
2022-12-09T04:14:09.148Z,25.53
2022-12-09T04:16:39.514Z,23.93
2022-12-09T04:19:06.620Z,24.83
2022-12-09T04:21:33.741Z,24.53
2022-12-09T04:24:00.910Z,24.30
2022-12-09T04:26:28.149Z,24.80
2022-12-09T04:28:55.552Z,27.20
2022-12-09T04:31:22.970Z,26.17
2022-12-09T04:33:50.220Z,23.50
2022-12-09T04:36:18.095Z,24.03
2022-12-09T04:38:45.534Z,24.97
2022-12-09T04:41:13.138Z,27.83
2022-12-09T04:43:40.298Z,28.07
2022-12-09T04:46:08.378Z,30.20
2022-12-09T04:48:35.757Z,28.07
2022-12-09T04:51:03.234Z,26.93
2022-12-09T04:53:30.485Z,29.50
2022-12-09T04:56:01.278Z,29.40
2022-12-09T04:58:28.543Z,28.03
2022-12-09T05:00:56.039Z,29.10
2022-12-09T05:03:23.491Z,31.73
2022-12-09T05:05:51.323Z,32.50
2022-12-09T05:08:18.622Z,33.77
2022-12-09T05:10:46.991Z,33.83
2022-12-09T05:13:14.621Z,34.20
2022-12-09T05:15:42.272Z,29.60
2022-12-09T05:18:09.679Z,28.77
2022-12-09T05:20:38.979Z,30.00
2022-12-09T05:23:09.545Z,29.00
2022-12-09T05:25:37.369Z,25.90
2022-12-09T05:28:05.217Z,25.17
2022-12-09T05:30:32.541Z,24.53
2022-12-09T05:32:59.982Z,24.70
2022-12-09T05:35:27.350Z,26.60
2022-12-09T05:37:54.877Z,27.23
2022-12-09T05:40:22.355Z,29.67
2022-12-09T05:42:49.645Z,33.37
2022-12-09T05:45:17.354Z,32.03
2022-12-09T05:47:44.865Z,42.60
2022-12-09T05:50:12.829Z,43.57
2022-12-09T05:52:40.886Z,55.90
2022-12-09T05:55:08.766Z,48.50
2022-12-09T05:57:36.192Z,34.23
2022-12-09T06:00:06.215Z,35.30
2022-12-09T06:02:34.052Z,38.77
2022-12-09T06:05:01.515Z,40.90
2022-12-09T06:07:29.396Z,41.43
2022-12-09T06:09:57.154Z,42.33
2022-12-09T06:12:24.579Z,43.00
2022-12-09T06:14:52.689Z,42.93
2022-12-09T06:17:20.762Z,41.93
2022-12-09T06:19:48.287Z,41.43
2022-12-09T06:22:15.677Z,43.80
2022-12-09T06:24:42.837Z,41.33
2022-12-09T06:27:10.432Z,40.50
2022-12-09T06:29:37.866Z,38.83
2022-12-09T06:32:05.551Z,39.27
2022-12-09T06:34:32.858Z,40.20
2022-12-09T06:37:00.280Z,41.73
2022-12-09T06:39:27.875Z,38.40
2022-12-09T06:41:55.033Z,37.97
2022-12-09T06:44:24.374Z,37.77
2022-12-09T06:46:52.084Z,39.37
2022-12-09T06:49:19.559Z,46.77
2022-12-09T06:51:47.153Z,46.03
2022-12-09T06:54:14.255Z,49.40
2022-12-09T06:56:41.857Z,48.33
2022-12-09T06:59:09.487Z,49.13
2022-12-09T07:01:36.746Z,49.00
2022-12-09T07:04:04.448Z,48.17
2022-12-09T07:06:32.010Z,50.83
2022-12-09T07:09:00.390Z,53.40
2022-12-09T07:11:28.253Z,55.47
2022-12-09T07:13:55.689Z,59.03
2022-12-09T07:16:23.097Z,57.00
2022-12-09T07:18:50.344Z,55.60
2022-12-09T07:21:18.230Z,55.43
2022-12-09T07:23:45.586Z,58.03
2022-12-09T07:26:13.257Z,57.10
2022-12-09T07:28:42.712Z,59.17
2022-12-09T07:31:17.806Z,53.83
2022-12-09T07:33:45.379Z,45.83
2022-12-09T07:36:17.600Z,46.03
2022-12-09T07:38:48.299Z,52.23
2022-12-09T07:41:18.808Z,53.97
2022-12-09T07:43:46.899Z,60.20
2022-12-09T07:46:14.950Z,66.70
2022-12-09T07:48:42.524Z,66.07
2022-12-09T07:51:09.800Z,64.10
2022-12-09T07:53:37.330Z,76.30
2022-12-09T07:56:05.413Z,73.57
2022-12-09T07:58:32.818Z,105.77
2022-12-09T08:01:07.575Z,83.17
2022-12-09T08:03:35.035Z,70.90
2022-12-09T08:06:02.562Z,67.63
2022-12-09T08:08:30.199Z,64.87
2022-12-09T08:10:57.776Z,62.60
2022-12-09T08:13:24.919Z,63.57
2022-12-09T08:15:52.293Z,65.97
2022-12-09T08:18:19.648Z,74.43
2022-12-09T08:20:47.141Z,76.87
2022-12-09T08:23:14.432Z,74.43
2022-12-09T08:25:41.828Z,85.83
2022-12-09T08:28:09.511Z,90.07
2022-12-09T08:30:37.249Z,86.97
2022-12-09T08:33:05.048Z,86.60
2022-12-09T08:35:32.556Z,77.13
2022-12-09T08:38:00.186Z,45.97
2022-12-09T08:40:27.937Z,45.77
2022-12-09T08:42:55.565Z,31.07
2022-12-09T08:45:23.034Z,28.10
2022-12-09T08:47:50.914Z,29.87
2022-12-09T08:50:19.057Z,28.33
2022-12-09T08:52:46.460Z,27.30
2022-12-09T08:55:13.963Z,27.60
2022-12-09T08:57:41.218Z,40.60
2022-12-09T09:00:09.313Z,33.37
2022-12-09T09:02:36.809Z,31.93
2022-12-09T09:05:05.119Z,32.60
2022-12-09T09:07:32.912Z,35.10
2022-12-09T09:10:01.522Z,32.83
2022-12-09T09:12:29.203Z,31.97
2022-12-09T09:14:56.755Z,27.40
2022-12-09T09:17:24.707Z,25.60
2022-12-09T09:19:52.396Z,23.53
2022-12-09T09:22:19.715Z,24.50
2022-12-09T09:24:47.006Z,23.27
2022-12-09T09:27:14.212Z,21.47
2022-12-09T09:29:41.809Z,20.83
2022-12-09T09:32:09.247Z,22.37
2022-12-09T09:34:36.993Z,23.97
2022-12-09T09:37:04.284Z,24.87
2022-12-09T09:39:31.549Z,23.43
2022-12-09T09:42:06.230Z,21.90
2022-12-09T09:44:36.040Z,24.40
2022-12-09T09:47:04.506Z,24.03
2022-12-09T09:49:36.937Z,27.80
2022-12-09T09:52:07.284Z,64.80
2022-12-09T09:54:34.556Z,34.70
2022-12-09T09:57:04.395Z,23.13
2022-12-09T09:59:34.966Z,21.10
2022-12-09T10:02:22.861Z,17.13
2022-12-09T10:04:50.779Z,16.08
2022-12-09T10:07:18.234Z,17.90
2022-12-09T10:09:51.884Z,16.85
2022-12-09T10:12:51.668Z,18.87
2022-12-09T10:15:20.623Z,20.75
2022-12-09T10:17:53.272Z,16.67
2022-12-09T10:20:22.460Z,16.98
2022-12-09T10:22:54.393Z,16.10
2022-12-09T10:25:23.964Z,13.85
2022-12-09T10:27:53.401Z,13.10
2022-12-09T10:30:20.725Z,12.70
2022-12-09T10:32:48.384Z,17.15
2022-12-09T10:35:20.024Z,18.35
2022-12-09T10:37:48.514Z,15.65
2022-12-09T10:40:18.016Z,11.90
2022-12-09T10:43:08.096Z,9.93
2022-12-09T10:46:08.402Z,15.45
2022-12-09T10:48:32.751Z,13.43
2022-12-09T10:51:05.061Z,6.13
2022-12-09T10:53:32.598Z,7.13
2022-12-09T10:56:00.393Z,8.25
2022-12-09T10:58:28.370Z,8.88
2022-12-09T11:00:58.570Z,10.43
2022-12-09T11:03:27.939Z,9.07
2022-12-09T11:05:59.172Z,9.70
2022-12-09T11:08:26.482Z,10.90
2022-12-09T11:10:54.433Z,13.45
2022-12-09T11:13:22.365Z,15.15
2022-12-09T11:15:54.458Z,13.90
2022-12-09T11:18:26.794Z,12.43
2022-12-09T11:20:56.134Z,13.60
2022-12-09T11:23:23.820Z,12.68
2022-12-09T11:25:57.747Z,18.52
2022-12-09T11:28:35.174Z,16.80
2022-12-09T11:31:33.304Z,12.13
2022-12-09T11:34:05.471Z,12.27
2022-12-09T11:36:37.009Z,11.82
2022-12-09T11:39:16.171Z,14.43
2022-12-09T11:42:05.362Z,13.02
2022-12-09T11:44:32.726Z,13.10
2022-12-09T11:47:10.558Z,14.85
2022-12-09T11:49:49.954Z,12.95
2022-12-09T11:52:17.094Z,14.40
2022-12-09T11:54:54.578Z,12.10
2022-12-09T11:57:23.899Z,11.13
2022-12-09T11:59:52.381Z,10.95
2022-12-09T12:02:22.860Z,9.48
2022-12-09T12:04:53.078Z,10.77
2022-12-09T12:07:22.426Z,13.60
2022-12-09T12:09:49.504Z,12.13
2022-12-09T12:12:22.393Z,31.15
2022-12-09T12:14:49.464Z,26.97
2022-12-09T12:17:25.524Z,37.80
2022-12-09T12:19:53.009Z,27.85
2022-12-09T12:22:24.229Z,22.33
2022-12-09T12:25:17.083Z,19.42
2022-12-09T12:27:51.784Z,13.27
2022-12-09T12:30:22.841Z,12.57
2022-12-09T12:33:53.002Z,12.60
2022-12-09T12:35:51.016Z,12.10
2022-12-09T12:38:18.081Z,12.13
2022-12-09T12:40:51.308Z,15.27
2022-12-09T12:43:46.046Z,16.77
2022-12-09T12:46:25.164Z,24.02
2022-12-09T12:49:00.062Z,59.23
2022-12-09T12:51:33.765Z,27.13
2022-12-09T12:54:05.996Z,24.70
2022-12-09T12:56:47.930Z,26.73
2022-12-09T12:59:22.690Z,72.23
2022-12-09T13:02:01.386Z,41.33
2022-12-09T13:04:29.987Z,36.37
2022-12-09T13:07:07.516Z,61.53
2022-12-09T13:09:37.762Z,32.07
2022-12-09T13:12:15.061Z,35.60
2022-12-09T13:14:50.235Z,36.67
2022-12-09T13:17:19.028Z,41.28
2022-12-09T13:19:53.060Z,18.08
2022-12-09T13:22:25.601Z,24.90
2022-12-09T13:25:00.095Z,37.13
2022-12-09T13:27:38.854Z,23.65
2022-12-09T13:30:22.462Z,24.73
2022-12-09T13:33:08.548Z,12.37
2022-12-09T13:35:43.586Z,10.70
2022-12-09T13:38:29.388Z,11.47
2022-12-09T13:40:56.487Z,10.63
2022-12-09T13:43:27.532Z,11.73
2022-12-09T13:45:55.637Z,12.07
2022-12-09T13:48:22.740Z,18.63
2022-12-09T13:50:49.830Z,12.60
2022-12-09T13:53:20.150Z,10.03
2022-12-09T13:55:50.447Z,14.73
2022-12-09T13:58:28.211Z,16.73
2022-12-09T14:01:13.747Z,16.83
2022-12-09T14:03:50.022Z,12.85
2022-12-09T14:06:19.590Z,15.82
2022-12-09T14:08:47.825Z,13.05
2022-12-09T14:11:50.615Z,14.53
2022-12-09T14:14:23.655Z,13.70
2022-12-09T14:16:51.260Z,15.17
2022-12-09T14:19:24.547Z,15.77
2022-12-09T14:22:17.353Z,12.23
2022-12-09T14:24:45.000Z,13.03
2022-12-09T14:27:13.544Z,19.33
2022-12-09T14:29:43.415Z,20.03
2022-12-09T14:32:18.910Z,18.43
2022-12-09T14:34:46.046Z,22.40
2022-12-09T14:37:42.694Z,17.47
2022-12-09T14:40:15.765Z,12.43
2022-12-09T14:42:48.973Z,14.77
2022-12-09T14:45:24.826Z,18.03
2022-12-09T14:47:51.919Z,19.40
2022-12-09T14:50:19.820Z,24.23
2022-12-09T14:53:05.540Z,22.33
2022-12-09T14:55:33.844Z,26.20
2022-12-09T14:58:01.163Z,28.03
2022-12-09T15:00:28.426Z,24.07
2022-12-09T15:03:30.578Z,25.80
2022-12-09T15:05:53.733Z,25.93
2022-12-09T15:08:34.476Z,57.83
2022-12-09T15:11:02.703Z,41.10
2022-12-09T15:13:29.830Z,39.70
2022-12-09T15:15:56.985Z,34.10
2022-12-09T15:18:24.755Z,34.93
2022-12-09T15:20:55.583Z,37.63
2022-12-09T15:23:28.934Z,36.00
2022-12-09T15:25:56.879Z,34.70
2022-12-09T15:28:26.805Z,31.20
2022-12-09T15:30:58.563Z,29.27
2022-12-09T15:33:25.764Z,29.87
2022-12-09T15:36:22.478Z,28.57
2022-12-09T15:38:52.745Z,28.00
2022-12-09T15:41:38.594Z,27.03
2022-12-09T15:44:07.470Z,37.40
2022-12-09T15:46:34.586Z,50.30
2022-12-09T15:49:01.997Z,44.77
2022-12-09T15:51:29.088Z,43.37
2022-12-09T15:54:03.210Z,36.73
2022-12-09T15:56:34.916Z,54.17
2022-12-09T15:59:05.469Z,53.13
2022-12-09T16:01:33.855Z,41.87
2022-12-09T16:04:02.365Z,37.83
2022-12-09T16:06:30.501Z,30.07
2022-12-09T16:08:57.630Z,29.23
2022-12-09T16:11:40.861Z,52.57
2022-12-09T16:14:08.501Z,67.30
2022-12-09T16:16:41.550Z,66.30
2022-12-09T16:19:45.310Z,56.40
2022-12-09T16:22:15.360Z,64.50
2022-12-09T16:27:34.413Z,54.07
2022-12-09T16:30:20.587Z,44.43
2022-12-09T16:32:48.255Z,163.70
2022-12-09T16:35:35.604Z,97.70
2022-12-09T16:38:11.570Z,72.93
2022-12-09T16:40:44.481Z,97.20
2022-12-09T16:43:17.575Z,118.77
2022-12-09T16:45:45.289Z,99.30
2022-12-09T16:48:13.387Z,106.17
2022-12-09T16:50:42.617Z,98.80
2022-12-09T16:53:17.212Z,106.97
2022-12-09T16:55:59.702Z,80.17
2022-12-09T16:58:27.523Z,111.27
2022-12-09T17:00:54.675Z,128.00
2022-12-09T17:03:21.866Z,122.03
2022-12-09T17:05:49.013Z,88.77
2022-12-09T17:08:16.209Z,55.93
2022-12-09T17:10:43.444Z,84.73
2022-12-09T17:13:11.900Z,54.97
2022-12-09T17:15:40.675Z,71.57
2022-12-09T17:18:07.854Z,53.10
2022-12-09T17:20:34.959Z,53.50
2022-12-09T17:23:02.101Z,120.13
2022-12-09T17:25:32.910Z,48.47
2022-12-09T17:28:03.296Z,107.10
2022-12-09T17:30:30.481Z,57.80
2022-12-09T17:32:59.043Z,44.83
2022-12-09T17:35:27.158Z,50.10
2022-12-09T17:37:54.314Z,45.40
2022-12-09T17:40:21.498Z,33.67
2022-12-09T17:42:48.594Z,42.80
2022-12-09T17:45:15.725Z,37.20
2022-12-09T17:47:42.857Z,47.80
2022-12-09T17:50:10.916Z,43.47
2022-12-09T17:52:38.249Z,49.20
2022-12-09T17:55:06.691Z,39.27
2022-12-09T17:57:34.069Z,37.53
2022-12-09T18:00:01.208Z,44.10
2022-12-09T18:02:28.434Z,41.97
2022-12-09T18:04:55.598Z,36.10
2022-12-09T18:07:22.710Z,34.73
2022-12-09T18:09:54.349Z,30.63
2022-12-09T18:12:21.824Z,27.80
2022-12-09T18:14:48.920Z,25.70
2022-12-09T18:17:16.067Z,25.63
2022-12-09T18:19:43.240Z,31.13
2022-12-09T18:22:10.344Z,29.73
2022-12-09T18:24:37.456Z,29.37
2022-12-09T18:27:04.585Z,32.73
2022-12-09T18:29:31.746Z,36.67
2022-12-09T18:31:59.258Z,35.30
2022-12-09T18:34:26.952Z,47.97
2022-12-09T18:36:54.124Z,45.40
2022-12-09T18:39:21.322Z,48.03
2022-12-09T18:41:48.475Z,44.97
2022-12-09T18:44:15.953Z,45.37
2022-12-09T18:46:46.888Z,63.17
2022-12-09T18:49:14.832Z,66.83
2022-12-09T18:51:42.250Z,57.83
2022-12-09T18:54:09.456Z,55.87
2022-12-09T18:56:36.974Z,48.57
2022-12-09T18:59:07.104Z,47.80
2022-12-09T19:01:35.732Z,50.47
2022-12-09T19:04:03.415Z,39.63
2022-12-09T19:06:32.807Z,42.93
2022-12-09T19:09:02.028Z,38.53
2022-12-09T19:11:29.808Z,33.43
2022-12-09T19:13:56.986Z,38.13
2022-12-09T19:16:24.437Z,32.43
2022-12-09T19:18:53.574Z,30.70
2022-12-09T19:21:21.150Z,31.73
2022-12-09T19:23:48.643Z,25.60
2022-12-09T19:26:16.662Z,27.33
2022-12-09T19:28:47.425Z,27.13
2022-12-09T19:31:18.777Z,29.33
2022-12-09T19:33:45.944Z,30.63
2022-12-09T19:36:13.109Z,23.63
2022-12-09T19:38:40.364Z,23.13
2022-12-09T19:41:07.590Z,20.73
2022-12-09T19:43:34.846Z,18.50
2022-12-09T19:46:05.916Z,18.30
2022-12-09T19:48:35.021Z,25.90
2022-12-09T19:51:06.084Z,35.57
2022-12-09T19:53:33.280Z,45.80
2022-12-09T19:56:01.714Z,42.10
2022-12-09T19:58:29.354Z,53.17
2022-12-09T20:00:56.458Z,36.70
2022-12-09T20:03:23.698Z,28.33
2022-12-09T20:05:53.652Z,33.80
2022-12-09T20:08:20.979Z,30.03
2022-12-09T20:10:48.281Z,26.83
2022-12-09T20:13:15.631Z,26.53
2022-12-09T20:15:43.000Z,31.00
2022-12-09T20:18:10.165Z,36.57
2022-12-09T20:20:37.811Z,35.33
2022-12-09T20:23:04.921Z,43.50
2022-12-09T20:25:33.408Z,37.43
2022-12-09T20:28:00.704Z,33.10
2022-12-09T20:30:28.344Z,30.77
2022-12-09T20:32:55.492Z,29.73
2022-12-09T20:35:22.891Z,34.97
2022-12-09T20:37:50.012Z,31.63
2022-12-09T20:40:17.169Z,30.03
2022-12-09T20:42:44.329Z,28.90
2022-12-09T20:45:11.761Z,26.73
2022-12-09T20:47:38.858Z,24.77
2022-12-09T20:50:06.668Z,30.37
2022-12-09T20:52:34.014Z,23.67
2022-12-09T20:55:01.116Z,20.00
2022-12-09T20:57:28.381Z,17.93
2022-12-09T20:59:55.482Z,18.77
2022-12-09T21:02:22.587Z,19.73
2022-12-09T21:04:51.128Z,18.93
2022-12-09T21:07:18.237Z,23.23
2022-12-09T21:09:45.963Z,23.97
2022-12-09T21:12:13.395Z,23.70
2022-12-09T21:14:40.773Z,21.90
2022-12-09T21:17:08.852Z,22.07
2022-12-09T21:19:36.087Z,21.40
2022-12-09T21:22:04.025Z,20.50
2022-12-09T21:24:31.177Z,21.70
2022-12-09T21:26:58.427Z,20.83
2022-12-09T21:29:31.230Z,21.77
2022-12-09T21:31:59.024Z,21.93
2022-12-09T21:34:27.161Z,20.73
2022-12-09T21:36:54.304Z,20.67
2022-12-09T21:39:21.504Z,21.03
2022-12-09T21:41:48.613Z,20.33
2022-12-09T21:44:16.914Z,19.57
2022-12-09T21:46:44.150Z,21.60
2022-12-09T21:49:11.748Z,28.13
2022-12-09T21:51:38.911Z,23.87
2022-12-09T21:54:06.148Z,25.40
2022-12-09T21:56:35.023Z,23.30
2022-12-09T21:59:02.306Z,21.40
2022-12-09T22:01:36.539Z,20.73
2022-12-09T22:04:04.393Z,19.40
2022-12-09T22:06:31.569Z,18.57
2022-12-09T22:08:59.662Z,17.33
2022-12-09T22:11:27.612Z,16.83
2022-12-09T22:13:56.219Z,17.77
2022-12-09T22:16:24.075Z,16.93
2022-12-09T22:18:51.518Z,17.37
2022-12-09T22:21:25.093Z,17.37
2022-12-09T22:23:56.240Z,17.43
2022-12-09T22:26:23.469Z,17.67
2022-12-09T22:28:50.602Z,15.83
2022-12-09T22:31:18.782Z,15.90
2022-12-09T22:33:45.969Z,23.07
2022-12-09T22:36:13.258Z,28.47
2022-12-09T22:38:40.835Z,27.67
2022-12-09T22:41:12.249Z,19.70
2022-12-09T22:43:39.370Z,23.17
2022-12-09T22:46:17.983Z,21.57
2022-12-09T22:48:45.167Z,16.30
2022-12-09T22:51:15.791Z,14.23
2022-12-09T22:53:42.909Z,14.10
2022-12-09T22:56:10.548Z,31.10
2022-12-09T22:58:37.733Z,32.57
2022-12-09T23:01:11.956Z,33.87
2022-12-09T23:03:39.152Z,35.23
2022-12-09T23:06:06.622Z,36.33
2022-12-09T23:08:33.869Z,36.30
2022-12-09T23:11:04.569Z,41.00
2022-12-09T23:13:36.166Z,41.90
2022-12-09T23:16:06.572Z,35.57
2022-12-09T23:18:34.008Z,24.53
2022-12-09T23:21:10.114Z,17.27
2022-12-09T23:23:37.296Z,32.97
2022-12-09T23:26:05.060Z,32.43
2022-12-09T23:28:32.793Z,21.43
2022-12-09T23:31:02.351Z,23.73
2022-12-09T23:33:29.461Z,31.23
2022-12-09T23:35:56.728Z,35.03
2022-12-09T23:38:23.832Z,32.50
2022-12-09T23:40:53.708Z,39.93
2022-12-09T23:43:21.091Z,39.17
2022-12-09T23:45:48.240Z,36.10
2022-12-09T23:48:15.360Z,24.73
2022-12-09T23:50:42.864Z,23.87
2022-12-09T23:53:10.017Z,23.90
2022-12-09T23:55:41.822Z,18.00
2022-12-09T23:58:09.073Z,20.73
